Time;durP1;ratioP1;P1;durP2;ratioP2;P2;SDS_P1;SDS_P2;PMS_P1;PMS_P2;Temp;Humidity;BMP_temperature;BMP_pressure;BME280_temperature;BME280_humidity;BME280_pressure;Samples;Min_cycle;Max_cycle;Signal;HPM_P1;HPM_P2
2022/01/23 00:01:25;;;;;;;10.77;5.88;;;5.70;93.60;;;;;;10126177;28;20049;-61
2022/01/23 00:06:16;;;;;;;11.75;5.97;;;5.80;93.70;;;;;;10125208;28;20028;-60
2022/01/23 00:11:07;;;;;;;13.00;5.97;;;5.80;93.70;;;;;;10125226;28;20035;-64
2022/01/23 00:21:07;;;;;;;13.77;6.43;;;5.80;93.70;;;;;;10127646;28;20432;-61
2022/01/23 00:31:07;;;;;;;11.15;6.38;;;5.80;93.60;;;;;;10124910;28;20140;-62
2022/01/23 00:35:58;;;;;;;11.48;6.35;;;5.70;93.80;;;;;;10127180;28;20172;-62
2022/01/23 00:40:49;;;;;;;12.95;5.60;;;5.70;93.70;;;;;;10104921;28;20097;-61
2022/01/23 00:45:52;;;;;;;11.82;5.18;;;5.70;93.70;;;;;;10124673;28;20493;-65
2022/01/23 00:50:44;;;;;;;8.05;4.50;;;5.60;93.80;;;;;;10126158;28;20119;-62
2022/01/23 00:55:37;;;;;;;11.98;5.55;;;5.60;93.80;;;;;;10124016;28;20387;-61
2022/01/23 01:00:28;;;;;;;9.88;4.82;;;5.60;93.90;;;;;;10151030;28;20059;-61
2022/01/23 01:05:19;;;;;;;10.07;5.28;;;5.50;93.80;;;;;;10159824;28;20553;-60
2022/01/23 01:10:19;;;;;;;10.98;5.38;;;5.60;93.80;;;;;;10147791;28;20035;-61
2022/01/23 01:35:43;;;;;;;13.52;5.78;;;5.70;93.80;;;;;;10159535;28;20083;-62
2022/01/23 01:40:34;;;;;;;8.35;4.97;;;5.70;93.80;;;;;;10167251;28;20039;-60
2022/01/23 01:45:27;;;;;;;10.40;5.45;;;5.70;93.70;;;;;;10158110;28;20028;-61
2022/01/23 01:50:18;;;;;;;10.68;5.28;;;5.80;93.80;;;;;;10171343;28;20051;-61
2022/01/23 01:55:14;;;;;;;10.52;5.18;;;5.70;93.80;;;;;;10170640;28;20032;-61
2022/01/23 02:10:15;;;;;;;11.02;5.72;;;5.70;93.90;;;;;;10113799;28;20032;-62
2022/01/23 02:50:54;;;;;;;9.73;5.53;;;5.80;93.80;;;;;;10127125;28;20801;-71
2022/01/23 02:55:48;;;;;;;15.15;5.90;;;5.70;93.90;;;;;;10128669;28;20550;-70
2022/01/23 03:01:02;;;;;;;14.23;6.97;;;5.70;94.00;;;;;;10130556;28;20698;-71
2022/01/23 03:11:07;;;;;;;12.68;6.07;;;5.70;93.90;;;;;;10124273;28;20070;-66
2022/01/23 03:31:24;;;;;;;17.60;7.70;;;5.70;93.90;;;;;;10073102;28;20546;-62
2022/01/23 03:36:14;;;;;;;12.75;5.70;;;5.80;93.80;;;;;;10122554;28;20036;-59
2022/01/23 03:41:05;;;;;;;15.43;6.80;;;5.80;93.90;;;;;;10130094;28;20028;-63
2022/01/23 03:50:47;;;;;;;14.68;6.35;;;5.80;93.90;;;;;;10130381;28;21102;-58
2022/01/23 03:55:38;;;;;;;14.38;6.03;;;5.80;94.00;;;;;;10123035;28;20523;-63
2022/01/23 04:00:28;;;;;;;13.30;6.30;;;5.80;94.10;;;;;;10128494;28;20538;-60
2022/01/23 04:05:19;;;;;;;12.85;6.90;;;5.80;94.10;;;;;;10128653;28;20052;-60
2022/01/23 04:10:12;;;;;;;13.55;6.63;;;5.90;94.00;;;;;;10126374;28;20040;-59
2022/01/23 04:20:38;;;;;;;14.40;6.25;;;5.90;94.30;;;;;;10120406;28;20094;-69
2022/01/23 04:46:39;;;;;;;12.27;7.18;;;5.80;94.20;;;;;;10112001;28;20425;-61
2022/01/23 05:06:43;;;;;;;14.93;7.47;;;5.90;94.20;;;;;;10124891;28;20066;-72
2022/01/23 05:11:46;;;;;;;15.13;7.85;;;5.90;94.10;;;;;;10125203;28;20024;-72
2022/01/23 05:16:37;;;;;;;17.92;8.43;;;5.90;94.10;;;;;;10117248;28;20493;-63
2022/01/23 05:26:41;;;;;;;14.70;6.43;;;5.70;94.40;;;;;;10128039;28;20020;-70
2022/01/23 05:31:32;;;;;;;15.30;7.82;;;5.70;94.30;;;;;;10114858;28;20067;-66
2022/01/23 05:36:23;;;;;;;18.58;7.60;;;5.70;94.20;;;;;;10122556;28;20455;-74
2022/01/23 05:41:14;;;;;;;14.05;7.25;;;5.70;94.20;;;;;;10115544;28;20451;-73
2022/01/23 05:46:04;;;;;;;16.35;7.72;;;5.70;94.30;;;;;;10123012;28;20641;-62
2022/01/23 05:50:55;;;;;;;16.02;9.23;;;5.70;94.20;;;;;;10106001;28;20752;-61
2022/01/23 05:55:45;;;;;;;16.95;8.10;;;5.60;94.30;;;;;;10122313;28;20036;-60
2022/01/23 06:00:36;;;;;;;16.20;7.15;;;5.60;94.30;;;;;;10125198;28;20040;-60
2022/01/23 06:05:27;;;;;;;16.33;7.45;;;5.70;94.30;;;;;;10124443;28;20035;-60
2022/01/23 06:10:26;;;;;;;18.95;8.18;;;5.70;94.10;;;;;;10117061;28;20062;-60
2022/01/23 06:15:18;;;;;;;13.70;7.40;;;5.80;94.10;;;;;;10125143;28;20033;-62
2022/01/23 06:20:10;;;;;;;11.70;6.88;;;5.80;94.00;;;;;;10128925;28;20032;-63
2022/01/23 06:25:04;;;;;;;19.77;7.75;;;5.80;94.10;;;;;;10127963;28;20020;-59
2022/01/23 06:29:54;;;;;;;14.48;8.23;;;5.80;94.20;;;;;;10120445;28;20085;-61
2022/01/23 06:34:46;;;;;;;13.73;7.68;;;5.70;94.20;;;;;;10130459;28;20021;-63
2022/01/23 06:39:37;;;;;;;17.02;7.60;;;5.80;94.20;;;;;;10106406;28;20113;-62
2022/01/23 06:44:28;;;;;;;16.33;7.47;;;5.80;94.30;;;;;;10109196;28;20112;-65
2022/01/23 06:49:18;;;;;;;18.52;7.82;;;5.80;94.30;;;;;;10134574;28;20359;-72
2022/01/23 06:54:10;;;;;;;13.40;7.05;;;5.90;94.10;;;;;;10127444;28;20021;-70
2022/01/23 06:59:01;;;;;;;16.02;7.97;;;5.70;94.30;;;;;;10119831;28;20494;-68
2022/01/23 07:03:51;;;;;;;13.02;6.97;;;5.80;94.20;;;;;;10133312;28;20020;-71
2022/01/23 07:08:42;;;;;;;15.50;7.90;;;5.80;94.20;;;;;;10125890;28;20538;-70
2022/01/23 07:13:33;;;;;;;18.23;7.68;;;5.80;94.30;;;;;;10130057;28;20071;-66
2022/01/23 07:18:23;;;;;;;16.95;8.30;;;5.70;94.40;;;;;;10136826;28;20048;-75
2022/01/23 07:23:21;;;;;;;13.77;7.20;;;5.80;94.20;;;;;;10130448;28;20024;-65
2022/01/23 07:28:14;;;;;;;13.25;7.07;;;5.90;94.20;;;;;;10135753;28;20067;-65
2022/01/23 07:33:05;;;;;;;18.75;8.10;;;5.80;94.20;;;;;;10127185;28;20479;-75
2022/01/23 07:37:56;;;;;;;20.38;8.55;;;5.80;94.30;;;;;;10128777;28;20074;-72
2022/01/23 07:42:47;;;;;;;18.08;7.75;;;5.80;94.30;;;;;;10131645;28;20478;-68
2022/01/23 07:47:38;;;;;;;14.25;7.20;;;6.00;94.20;;;;;;10129876;28;20013;-60
2022/01/23 07:52:30;;;;;;;17.15;8.85;;;6.00;94.20;;;;;;10108388;28;20443;-60
2022/01/23 07:57:21;;;;;;;16.85;7.55;;;6.00;94.10;;;;;;10129976;28;20684;-67
2022/01/23 08:02:12;;;;;;;15.38;7.38;;;6.10;94.10;;;;;;10139515;28;20029;-69
2022/01/23 08:07:11;;;;;;;14.15;8.23;;;6.00;94.20;;;;;;10129665;28;20036;-60
2022/01/23 08:12:03;;;;;;;16.45;8.07;;;6.00;94.20;;;;;;10125153;28;20040;-65
2022/01/23 08:16:54;;;;;;;17.98;7.97;;;6.00;94.30;;;;;;10142179;28;20025;-71
2022/01/23 08:21:47;;;;;;;14.50;7.45;;;6.10;94.20;;;;;;10127680;28;20041;-63
2022/01/23 08:26:38;;;;;;;12.68;7.38;;;6.10;94.30;;;;;;10127489;28;20479;-75
2022/01/23 08:31:28;;;;;;;18.27;7.90;;;6.10;94.20;;;;;;10125492;28;20032;-68
2022/01/23 08:36:19;;;;;;;16.90;7.10;;;6.10;94.30;;;;;;10129422;28;20069;-69
2022/01/23 08:46:20;;;;;;;15.65;6.90;;;6.20;94.30;;;;;;10128137;28;20490;-70
2022/01/23 08:51:11;;;;;;;16.55;7.40;;;6.30;94.20;;;;;;10133582;28;20603;-69
2022/01/23 08:56:02;;;;;;;16.85;7.93;;;6.10;94.30;;;;;;10118642;28;20051;-65
2022/01/23 09:00:53;;;;;;;15.50;7.28;;;6.10;94.40;;;;;;10127679;28;20056;-66
2022/01/23 09:05:44;;;;;;;12.93;6.75;;;6.20;94.30;;;;;;10130148;28;20398;-60
2022/01/23 09:10:51;;;;;;;17.25;8.35;;;6.20;94.30;;;;;;10126519;28;20128;-59
2022/01/23 09:15:41;;;;;;;16.50;8.02;;;6.30;94.30;;;;;;10123082;28;20024;-60
2022/01/23 09:20:33;;;;;;;14.27;7.65;;;6.40;94.20;;;;;;10124004;28;20186;-62
2022/01/23 09:25:24;;;;;;;27.58;9.80;;;6.30;94.20;;;;;;10122185;28;20131;-63
2022/01/23 09:30:19;;;;;;;15.95;7.78;;;6.40;94.30;;;;;;10123332;28;20109;-59
2022/01/23 09:35:10;;;;;;;18.73;9.23;;;6.40;94.20;;;;;;10121036;28;20283;-67
2022/01/23 09:40:02;;;;;;;18.35;8.38;;;6.40;94.60;;;;;;10126076;28;20044;-71
2022/01/23 09:44:59;;;;;;;17.45;7.40;;;6.50;94.10;;;;;;10122955;28;20059;-60
2022/01/23 09:49:51;;;;;;;17.13;7.78;;;6.60;94.20;;;;;;10105247;28;20448;-59
2022/01/23 09:54:46;;;;;;;18.95;8.85;;;6.60;94.10;;;;;;10134063;28;20025;-60
2022/01/23 09:59:37;;;;;;;13.63;7.43;;;6.60;94.10;;;;;;10135264;28;20094;-59
2022/01/23 10:04:28;;;;;;;15.75;8.10;;;6.60;94.10;;;;;;10133726;28;20195;-59
2022/01/23 10:09:24;;;;;;;14.00;7.43;;;6.70;94.10;;;;;;10111474;28;20172;-60
2022/01/23 10:14:17;;;;;;;15.45;8.40;;;6.70;94.10;;;;;;10135193;28;20466;-62
2022/01/23 10:19:08;;;;;;;18.02;8.43;;;6.70;94.10;;;;;;10142181;28;20044;-60
2022/01/23 10:23:59;;;;;;;18.13;8.13;;;6.90;94.00;;;;;;10127135;28;20503;-62
2022/01/23 10:29:09;;;;;;;15.70;8.65;;;7.00;93.90;;;;;;10134611;28;20032;-61
2022/01/23 10:34:00;;;;;;;16.85;7.90;;;6.90;93.90;;;;;;10127698;28;20418;-61
2022/01/23 10:38:58;;;;;;;15.05;7.40;;;6.90;94.00;;;;;;10131651;28;20036;-60
2022/01/23 10:49:17;;;;;;;16.65;8.60;;;7.00;93.90;;;;;;10124301;28;20058;-60
2022/01/23 10:54:16;;;;;;;15.65;8.32;;;7.00;93.90;;;;;;10133972;28;20504;-62
2022/01/23 10:59:12;;;;;;;18.15;9.38;;;7.10;93.90;;;;;;10129145;28;20072;-66
2022/01/23 11:04:11;;;;;;;15.37;8.70;;;7.20;93.80;;;;;;10130862;28;21654;-66
2022/01/23 11:09:09;;;;;;;17.90;8.38;;;7.10;93.80;;;;;;10136570;28;20025;-61
2022/01/23 11:19:30;;;;;;;20.15;9.10;;;7.10;93.80;;;;;;10119412;28;20103;-62
2022/01/23 11:24:22;;;;;;;16.00;8.35;;;7.10;93.90;;;;;;10148223;28;20589;-62
2022/01/23 11:29:18;;;;;;;15.27;8.25;;;7.10;94.00;;;;;;10146574;28;20024;-62
2022/01/23 11:34:11;;;;;;;13.48;7.43;;;7.10;93.90;;;;;;10141597;28;20487;-61
2022/01/23 11:39:12;;;;;;;14.30;7.70;;;6.90;94.00;;;;;;10134402;28;20040;-61
2022/01/23 11:54:42;;;;;;;15.43;8.52;;;7.00;94.00;;;;;;10113906;28;20036;-62
2022/01/23 11:59:40;;;;;;;14.45;8.35;;;6.90;93.90;;;;;;10127488;28;21022;-65
2022/01/23 12:04:33;;;;;;;15.45;6.90;;;7.00;94.00;;;;;;10128387;28;20435;-62
2022/01/23 12:09:24;;;;;;;15.52;7.60;;;7.00;94.00;;;;;;10127102;28;20036;-64
2022/01/23 12:19:20;;;;;;;12.15;6.78;;;7.10;93.90;;;;;;10123757;28;20171;-66
2022/01/23 12:24:12;;;;;;;17.02;6.95;;;7.00;93.90;;;;;;10126839;28;20037;-61
2022/01/23 12:29:39;;;;;;;15.38;7.57;;;7.00;93.90;;;;;;10128178;28;20025;-63
2022/01/23 12:34:51;;;;;;;18.42;9.10;;;7.00;93.80;;;;;;9998058;28;20041;-69
2022/01/23 12:39:42;;;;;;;18.35;8.75;;;7.30;93.70;;;;;;10127381;28;20040;-63
2022/01/23 12:44:35;;;;;;;19.52;9.60;;;7.50;93.40;;;;;;10129939;28;20592;-68
2022/01/23 12:49:32;;;;;;;16.20;7.85;;;7.40;93.70;;;;;;10128123;28;20071;-62
2022/01/23 12:54:31;;;;;;;21.90;8.30;;;7.50;93.50;;;;;;10131378;28;20060;-62
2022/01/23 12:59:30;;;;;;;18.15;8.90;;;7.40;93.70;;;;;;10114999;28;20109;-63
2022/01/23 13:04:20;;;;;;;14.40;7.63;;;7.60;93.60;;;;;;10128150;28;20135;-64
2022/01/23 13:30:30;;;;;;;15.18;8.20;;;7.40;93.60;;;;;;10124012;28;20078;-64
2022/01/23 13:35:22;;;;;;;22.58;9.85;;;7.50;93.60;;;;;;10130336;28;20112;-62
2022/01/23 13:40:15;;;;;;;18.45;9.45;;;7.40;93.60;;;;;;10125976;28;20341;-63
2022/01/23 14:01:14;;;;;;;20.17;10.10;;;7.60;93.30;;;;;;10126885;28;20067;-62
2022/01/23 14:06:05;;;;;;;15.40;7.57;;;7.70;93.30;;;;;;10125198;28;20046;-67
2022/01/23 14:10:56;;;;;;;20.20;8.60;;;7.70;93.20;;;;;;10122690;28;20147;-68
2022/01/23 14:15:50;;;;;;;13.40;8.10;;;7.70;93.30;;;;;;10122725;28;20420;-68
2022/01/23 14:20:53;;;;;;;15.88;8.23;;;7.70;93.20;;;;;;10126450;28;20090;-68
2022/01/23 14:25:46;;;;;;;17.67;9.10;;;7.90;93.10;;;;;;10110346;28;20160;-67
2022/01/23 14:30:53;;;;;;;15.75;7.13;;;7.90;93.00;;;;;;10125311;28;20036;-67
2022/01/23 14:35:44;;;;;;;15.73;7.53;;;7.80;92.90;;;;;;10131493;28;20489;-64
2022/01/23 14:40:35;;;;;;;16.52;8.43;;;7.70;93.00;;;;;;10137789;28;20028;-62
2022/01/23 14:45:27;;;;;;;16.42;7.22;;;7.70;93.20;;;;;;10132327;28;20029;-65
2022/01/23 14:50:20;;;;;;;14.13;7.80;;;7.70;93.10;;;;;;10135055;28;20064;-63
2022/01/23 14:55:11;;;;;;;16.52;7.82;;;7.70;93.00;;;;;;10121303;28;20023;-64
2022/01/23 15:00:08;;;;;;;12.52;7.13;;;7.70;93.00;;;;;;10130637;28;20443;-63
2022/01/23 15:05:02;;;;;;;15.02;7.35;;;7.70;92.90;;;;;;10130052;28;20032;-68
2022/01/23 15:09:53;;;;;;;19.45;7.38;;;7.60;92.90;;;;;;10127148;28;20031;-66
2022/01/23 15:14:44;;;;;;;16.65;7.03;;;7.50;93.00;;;;;;10129083;28;20036;-61
2022/01/23 15:19:35;;;;;;;16.88;7.43;;;7.50;92.90;;;;;;10134051;28;20040;-63
2022/01/23 15:24:26;;;;;;;15.80;7.85;;;7.40;92.90;;;;;;10126200;28;20486;-60
2022/01/23 15:29:16;;;;;;;13.10;7.05;;;7.50;92.90;;;;;;10130913;28;20043;-63
2022/01/23 15:34:07;;;;;;;16.38;8.13;;;7.40;92.90;;;;;;10127237;28;20112;-63
2022/01/23 15:38:58;;;;;;;13.50;7.28;;;7.40;92.90;;;;;;10126302;28;20020;-60
2022/01/23 15:43:49;;;;;;;15.52;8.32;;;7.40;92.90;;;;;;10130579;28;20025;-62
2022/01/23 15:48:41;;;;;;;14.23;6.68;;;7.30;93.00;;;;;;10119620;28;20036;-60
2022/01/23 15:53:31;;;;;;;16.38;6.60;;;7.10;93.20;;;;;;10123828;28;20024;-61
2022/01/23 15:58:22;;;;;;;17.25;7.72;;;7.10;93.20;;;;;;10131155;28;20538;-62
2022/01/23 16:03:13;;;;;;;17.10;8.90;;;7.00;93.30;;;;;;10127338;28;20119;-61
2022/01/23 16:08:04;;;;;;;15.60;8.55;;;7.10;93.20;;;;;;10106290;28;20037;-63
2022/01/23 16:12:55;;;;;;;17.55;8.55;;;7.20;93.00;;;;;;10127404;28;20035;-62
2022/01/23 16:17:47;;;;;;;12.13;6.90;;;7.20;93.10;;;;;;10134537;28;20119;-61
2022/01/23 16:22:39;;;;;;;16.20;7.63;;;7.10;93.20;;;;;;10132343;28;20391;-61
2022/01/23 16:27:29;;;;;;;18.85;7.72;;;7.10;93.20;;;;;;10103285;28;20032;-61
2022/01/23 16:32:20;;;;;;;15.07;7.47;;;7.00;93.30;;;;;;10126042;28;20028;-60
2022/01/23 16:37:11;;;;;;;13.85;6.55;;;7.00;93.30;;;;;;10120256;28;20094;-60
2022/01/23 16:42:02;;;;;;;20.35;8.20;;;7.10;93.30;;;;;;10124386;28;20032;-61
2022/01/23 16:46:53;;;;;;;14.98;7.03;;;7.10;93.20;;;;;;10123327;28;20025;-63
2022/01/23 16:51:44;;;;;;;12.43;6.30;;;7.10;93.20;;;;;;10096892;28;20036;-63
2022/01/23 16:56:36;;;;;;;18.23;7.05;;;7.10;93.20;;;;;;10132422;28;20070;-65
2022/01/23 17:01:27;;;;;;;15.55;7.63;;;7.00;93.20;;;;;;10162788;28;20032;-64
2022/01/23 17:06:28;;;;;;;13.35;6.72;;;7.10;93.10;;;;;;10178698;28;20034;-64
2022/01/23 17:11:19;;;;;;;12.82;6.88;;;7.00;93.00;;;;;;10153313;28;20525;-64
2022/01/23 17:16:14;;;;;;;15.30;6.53;;;7.10;93.00;;;;;;10169143;28;20127;-64
2022/01/23 17:21:05;;;;;;;18.27;7.03;;;7.00;93.00;;;;;;10167271;28;20110;-66
2022/01/23 17:25:56;;;;;;;13.90;6.68;;;7.00;93.10;;;;;;10164013;28;20542;-64
2022/01/23 17:30:47;;;;;;;8.73;5.68;;;7.00;93.10;;;;;;10167398;28;20140;-62
2022/01/23 17:35:38;;;;;;;10.40;5.20;;;7.00;93.00;;;;;;10172674;28;20089;-62
2022/01/23 17:40:28;;;;;;;12.25;4.75;;;7.00;92.90;;;;;;10167049;28;20083;-62
2022/01/23 17:50:42;;;;;;;9.88;4.75;;;7.00;92.80;;;;;;10148253;28;20213;-62
2022/01/23 17:55:33;;;;;;;9.95;4.70;;;7.10;92.70;;;;;;10169420;28;20243;-63
2022/01/23 18:00:24;;;;;;;8.05;4.80;;;7.10;92.50;;;;;;10127790;28;20049;-61
2022/01/23 18:05:14;;;;;;;9.50;4.72;;;7.00;92.50;;;;;;10110677;28;20513;-60
2022/01/23 18:10:07;;;;;;;8.25;4.15;;;7.10;92.50;;;;;;10125237;28;20285;-61
2022/01/23 18:14:58;;;;;;;8.82;4.43;;;7.10;92.40;;;;;;10137004;28;20520;-65
2022/01/23 18:19:49;;;;;;;7.75;4.78;;;7.10;92.30;;;;;;10133006;28;20040;-62
2022/01/23 18:24:39;;;;;;;8.32;4.40;;;7.00;92.30;;;;;;10132688;28;20057;-63
2022/01/23 18:29:31;;;;;;;8.63;4.30;;;7.00;92.30;;;;;;10131313;28;20590;-59
2022/01/23 18:34:23;;;;;;;8.40;5.20;;;7.10;92.30;;;;;;10120076;28;20021;-61
2022/01/23 18:39:14;;;;;;;8.85;5.07;;;7.00;92.10;;;;;;10105140;28;20044;-63
2022/01/23 18:44:05;;;;;;;7.93;3.90;;;7.10;92.10;;;;;;10130198;28;20032;-59
2022/01/23 18:48:55;;;;;;;9.27;4.65;;;7.10;92.00;;;;;;10128713;28;20028;-62
2022/01/23 18:53:53;;;;;;;9.68;4.55;;;7.10;92.00;;;;;;10125969;28;20104;-60
2022/01/23 18:58:52;;;;;;;14.38;7.38;;;7.00;92.00;;;;;;10127410;28;20201;-61
2022/01/23 19:03:59;;;;;;;11.18;5.68;;;6.90;92.00;;;;;;10130503;28;20032;-61
2022/01/23 19:08:56;;;;;;;10.05;5.65;;;7.10;91.80;;;;;;10123963;28;20064;-59
2022/01/23 19:13:46;;;;;;;9.32;4.22;;;7.10;91.60;;;;;;10133345;28;20031;-59
2022/01/23 19:18:37;;;;;;;8.18;4.90;;;7.10;91.60;;;;;;10141259;28;20041;-63
2022/01/23 19:23:28;;;;;;;6.78;4.57;;;7.00;91.60;;;;;;10134238;28;20032;-62
2022/01/23 19:28:19;;;;;;;8.15;3.88;;;7.10;91.50;;;;;;10128832;28;20564;-64
2022/01/23 19:33:12;;;;;;;9.15;4.65;;;7.00;91.40;;;;;;10130518;28;20139;-64
2022/01/23 19:38:10;;;;;;;6.47;4.60;;;6.80;91.40;;;;;;10115165;28;20483;-62
2022/01/23 19:48:13;;;;;;;6.80;4.00;;;6.80;91.40;;;;;;10122049;28;20059;-61
2022/01/23 19:53:04;;;;;;;7.80;4.85;;;6.90;91.30;;;;;;10134170;28;20068;-64
2022/01/23 19:57:56;;;;;;;10.00;4.65;;;6.90;91.10;;;;;;10102289;28;20058;-63
2022/01/23 20:02:47;;;;;;;7.00;4.40;;;6.80;91.10;;;;;;10128167;28;20024;-61
2022/01/23 20:07:37;;;;;;;9.20;5.32;;;6.80;90.90;;;;;;10128353;28;20482;-61
2022/01/23 20:12:44;;;;;;;9.50;4.90;;;6.80;90.80;;;;;;10128699;28;20037;-62
2022/01/23 20:17:35;;;;;;;8.85;4.15;;;6.70;90.80;;;;;;10128325;28;20059;-66
2022/01/23 20:22:27;;;;;;;7.50;3.75;;;6.60;90.90;;;;;;10108549;28;20060;-62
2022/01/23 20:27:18;;;;;;;7.88;3.90;;;6.60;90.70;;;;;;10128378;28;20025;-63
2022/01/23 20:32:08;;;;;;;6.57;3.60;;;6.50;90.70;;;;;;10127134;28;20115;-62
2022/01/23 20:37:04;;;;;;;6.38;3.50;;;6.40;90.60;;;;;;10126200;28;20024;-60
2022/01/23 20:41:54;;;;;;;8.07;4.80;;;6.30;90.50;;;;;;10118949;28;20078;-60
2022/01/23 20:46:45;;;;;;;11.23;6.25;;;6.30;90.50;;;;;;10128573;28;20037;-61
2022/01/23 20:51:38;;;;;;;7.85;4.25;;;6.30;90.50;;;;;;10107293;28;20029;-60
2022/01/23 20:56:29;;;;;;;13.52;5.05;;;6.20;90.40;;;;;;10132212;28;20028;-61
2022/01/23 21:01:20;;;;;;;6.43;3.78;;;6.30;90.40;;;;;;10128811;28;20732;-61
2022/01/23 21:06:10;;;;;;;8.95;4.00;;;6.20;90.30;;;;;;10114317;28;20404;-60
2022/01/23 21:11:03;;;;;;;9.45;3.85;;;6.00;90.40;;;;;;10109311;28;20095;-62
2022/01/23 21:41:04;;;;;;;7.35;3.72;;;5.40;90.30;;;;;;10124168;28;20075;-62
2022/01/23 21:45:55;;;;;;;5.65;3.53;;;5.30;90.30;;;;;;10145113;28;20078;-63
2022/01/23 21:50:46;;;;;;;10.77;4.63;;;5.30;90.30;;;;;;10113309;28;20021;-64
2022/01/23 21:55:37;;;;;;;9.80;4.15;;;5.30;90.30;;;;;;10133006;28;20487;-63
2022/01/23 22:00:28;;;;;;;8.07;3.28;;;5.30;90.30;;;;;;10127213;28;20056;-63
2022/01/23 22:05:18;;;;;;;4.95;3.45;;;5.20;90.30;;;;;;10131747;28;20036;-62
2022/01/23 22:20:18;;;;;;;9.43;3.97;;;5.20;90.30;;;;;;10128378;28;20517;-62
2022/01/23 22:30:18;;;;;;;5.45;3.33;;;5.10;90.20;;;;;;10129212;28;20124;-62
2022/01/23 22:35:09;;;;;;;7.05;3.47;;;5.10;90.20;;;;;;10126565;28;20115;-63
2022/01/23 22:40:00;;;;;;;11.38;4.70;;;5.10;90.30;;;;;;10127182;28;20429;-64
2022/01/23 22:45:08;;;;;;;6.30;3.60;;;5.10;90.30;;;;;;10130874;28;20036;-61
2022/01/23 22:49:59;;;;;;;8.95;4.63;;;5.00;90.30;;;;;;10129490;28;20483;-61
2022/01/23 22:54:50;;;;;;;7.60;3.70;;;5.00;90.40;;;;;;10129036;28;20028;-61
2022/01/23 22:59:40;;;;;;;10.32;4.72;;;4.90;90.40;;;;;;10130441;28;20052;-63
2022/01/23 23:04:31;;;;;;;8.40;4.43;;;4.90;90.40;;;;;;10125516;28;20033;-61
2022/01/23 23:09:22;;;;;;;8.73;6.28;;;4.90;90.50;;;;;;10129494;28;20582;-60
2022/01/23 23:14:14;;;;;;;11.50;4.72;;;4.90;90.70;;;;;;10131027;28;20037;-62
2022/01/23 23:19:06;;;;;;;12.05;6.00;;;4.80;90.90;;;;;;10127891;28;20044;-62
2022/01/23 23:23:58;;;;;;;10.95;5.38;;;4.80;91.00;;;;;;10128052;28;20028;-63
2022/01/23 23:28:48;;;;;;;9.75;5.65;;;4.70;91.10;;;;;;10127704;28;20040;-65
2022/01/23 23:33:40;;;;;;;9.40;5.18;;;4.60;91.20;;;;;;10130222;28;20043;-61
2022/01/23 23:38:31;;;;;;;9.80;5.13;;;4.40;91.40;;;;;;10124740;28;20036;-62
2022/01/23 23:43:28;;;;;;;11.40;5.40;;;4.40;91.50;;;;;;10126558;28;20575;-61
2022/01/23 23:48:20;;;;;;;10.57;5.18;;;4.30;91.60;;;;;;10127709;28;20021;-63
2022/01/23 23:53:11;;;;;;;7.85;5.32;;;4.30;91.60;;;;;;10117351;28;20118;-61
2022/01/23 23:58:02;;;;;;;8.52;4.95;;;4.20;91.70;;;;;;10122094;28;20085;-62
